createdAt,value
2024-04-15T00:00:34.043Z,95183.53
2024-04-15T00:03:02.478Z,95178.56
2024-04-15T00:05:28.871Z,95171.94
2024-04-15T00:07:57.283Z,95156.41
2024-04-15T00:10:24.247Z,95159.00
2024-04-15T00:12:53.364Z,95150.75
2024-04-15T00:15:20.207Z,95158.25
2024-04-15T00:17:52.381Z,95137.22
2024-04-15T00:20:18.704Z,95134.06
2024-04-15T00:22:47.054Z,95131.38
2024-04-15T00:25:13.704Z,95137.06
2024-04-15T00:27:42.181Z,95135.28
2024-04-15T00:30:09.406Z,95129.25
2024-04-15T00:32:37.930Z,95130.84
2024-04-15T00:35:06.672Z,95127.16
2024-04-15T00:37:35.061Z,95127.38
2024-04-15T00:40:01.486Z,95116.28
2024-04-15T00:42:29.922Z,95112.25
2024-04-15T00:44:56.260Z,95115.00
2024-04-15T00:47:24.672Z,95106.19
2024-04-15T00:49:52.167Z,95100.22
2024-04-15T00:52:23.331Z,95091.88
2024-04-15T00:54:50.551Z,95087.56
2024-04-15T00:57:19.213Z,95085.13
2024-04-15T00:59:47.864Z,95079.19
2024-04-15T01:02:16.489Z,95072.25
2024-04-15T01:04:43.113Z,95069.69
2024-04-15T01:07:11.756Z,95075.78
2024-04-15T01:09:40.212Z,95064.06
2024-04-15T01:12:09.125Z,95063.91
2024-04-15T01:14:35.447Z,95058.59
2024-04-15T01:17:03.813Z,95054.75
2024-04-15T01:19:30.203Z,95056.50
2024-04-15T01:21:58.620Z,95058.28
2024-04-15T01:24:27.167Z,95047.03
2024-04-15T01:26:55.540Z,95042.69
2024-04-15T01:29:21.976Z,95037.53
2024-04-15T01:31:50.498Z,95044.63
2024-04-15T01:34:16.869Z,95047.66
2024-04-15T01:36:45.324Z,95036.41
2024-04-15T01:39:11.733Z,95024.47
2024-04-15T01:41:42.502Z,95032.22
2024-04-15T01:44:08.823Z,95030.63
2024-04-15T01:46:37.223Z,95025.47
2024-04-15T01:49:03.652Z,95028.19
2024-04-15T01:51:32.638Z,95029.31
2024-04-15T01:53:59.464Z,95019.97
2024-04-15T01:56:27.942Z,95028.00
2024-04-15T01:58:56.461Z,95021.88
2024-04-15T02:01:24.953Z,95016.56
2024-04-15T02:03:51.356Z,95018.66
2024-04-15T02:06:19.866Z,95010.13
2024-04-15T02:08:46.212Z,95018.34
2024-04-15T02:11:14.607Z,95016.09
2024-04-15T02:13:40.959Z,95000.50
2024-04-15T02:16:11.511Z,94995.50
2024-04-15T02:18:38.030Z,94992.47
2024-04-15T02:21:08.171Z,94993.13
2024-04-15T02:23:34.562Z,94989.59
2024-04-15T02:26:02.943Z,94990.72
2024-04-15T02:28:29.354Z,94988.50
2024-04-15T02:30:57.711Z,94982.88
2024-04-15T02:33:26.145Z,94986.09
2024-04-15T02:35:54.548Z,94979.34
2024-04-15T02:38:20.897Z,94976.91
2024-04-15T02:40:51.484Z,94974.19
2024-04-15T02:43:17.882Z,94970.63
2024-04-15T02:45:47.683Z,94964.16
2024-04-15T02:48:14.137Z,94966.25
2024-04-15T02:50:44.608Z,94962.06
2024-04-15T02:53:13.793Z,94968.31
2024-04-15T02:55:44.174Z,94967.44
2024-04-15T02:58:10.538Z,94965.66
2024-04-15T03:00:38.949Z,94964.28
2024-04-15T03:03:07.077Z,94968.94
2024-04-15T03:05:37.740Z,94977.56
2024-04-15T03:08:06.525Z,94982.31
2024-04-15T03:10:34.956Z,94979.97
2024-04-15T03:13:01.441Z,94982.91
2024-04-15T03:15:30.472Z,94982.06
2024-04-15T03:17:56.949Z,94980.72
2024-04-15T03:20:28.725Z,94989.22
2024-04-15T03:22:55.650Z,94979.75
2024-04-15T03:25:26.056Z,94980.94
2024-04-15T03:27:52.563Z,94981.50
2024-04-15T03:30:21.070Z,94982.34
2024-04-15T03:32:47.497Z,94981.94
2024-04-15T03:35:16.912Z,94982.81
2024-04-15T03:37:48.037Z,94981.34
2024-04-15T03:40:16.624Z,94978.94
2024-04-15T03:42:47.194Z,94983.75
2024-04-15T03:45:13.630Z,94986.19
2024-04-15T03:47:42.197Z,94976.56
2024-04-15T03:50:08.755Z,94975.31
2024-04-15T03:52:37.180Z,94989.81
2024-04-15T03:55:04.250Z,94985.72
2024-04-15T03:57:32.686Z,94983.56
2024-04-15T04:00:01.077Z,94979.66
2024-04-15T04:02:29.467Z,94974.56
2024-04-15T04:04:55.861Z,94986.06
2024-04-15T04:07:24.285Z,94992.41
2024-04-15T04:09:50.697Z,94998.81
2024-04-15T04:12:19.873Z,95001.41
2024-04-15T04:14:46.229Z,94996.94
2024-04-15T04:17:17.012Z,94991.56
2024-04-15T04:19:43.384Z,94980.13
2024-04-15T04:22:14.589Z,94972.09
2024-04-15T04:24:40.992Z,94986.84
2024-04-15T04:27:09.433Z,95002.34
2024-04-15T04:29:35.892Z,95002.19
2024-04-15T04:32:05.993Z,95002.72
2024-04-15T04:34:38.780Z,94998.94
2024-04-15T04:37:05.377Z,95008.63
2024-04-15T04:39:33.754Z,95007.53
2024-04-15T04:42:00.106Z,95020.78
2024-04-15T04:44:28.508Z,95019.81
2024-04-15T04:46:54.943Z,95019.34
2024-04-15T04:49:23.507Z,95022.91
2024-04-15T04:51:52.364Z,95007.63
2024-04-15T04:54:20.791Z,95000.75
2024-04-15T04:56:48.314Z,94995.63
2024-04-15T04:59:16.690Z,94996.59
2024-04-15T05:01:43.246Z,95007.63
2024-04-15T05:04:11.809Z,95013.09
2024-04-15T05:06:38.340Z,95031.31
2024-04-15T05:09:11.342Z,95032.09
2024-04-15T05:11:38.509Z,95023.75
2024-04-15T05:14:06.926Z,94995.91
2024-04-15T05:16:36.121Z,94993.66
2024-04-15T05:19:04.654Z,94999.44
2024-04-15T05:21:33.419Z,95003.63
2024-04-15T05:24:02.125Z,95006.59
2024-04-15T05:26:30.533Z,95023.31
2024-04-15T05:28:59.275Z,95038.47
2024-04-15T05:31:25.702Z,95048.94
2024-04-15T05:33:54.229Z,95041.22
2024-04-15T05:36:20.944Z,95055.44
2024-04-15T05:38:49.391Z,95056.91
2024-04-15T05:41:15.754Z,95063.84
2024-04-15T05:43:46.208Z,95067.56
2024-04-15T05:46:12.666Z,95048.09
2024-04-15T05:48:41.882Z,95050.34
2024-04-15T05:51:08.313Z,95052.13
2024-04-15T05:53:36.764Z,95055.66
2024-04-15T05:56:03.459Z,95067.72
2024-04-15T05:58:31.955Z,95088.81
2024-04-15T06:01:00.541Z,95088.66
2024-04-15T06:03:29.710Z,95082.41
2024-04-15T06:05:56.110Z,95075.63
2024-04-15T06:08:24.731Z,95061.34
2024-04-15T06:10:51.381Z,95055.06
2024-04-15T06:13:21.088Z,95044.31
2024-04-15T06:15:48.507Z,95042.22
2024-04-15T06:18:19.296Z,95043.19
2024-04-15T06:20:45.694Z,95051.88
2024-04-15T06:23:14.146Z,95043.69
2024-04-15T06:25:40.538Z,95036.09
2024-04-15T06:28:09.092Z,95035.44
2024-04-15T06:30:36.422Z,95033.53
2024-04-15T06:33:05.126Z,95053.28
2024-04-15T06:35:33.641Z,95072.44
2024-04-15T06:38:02.106Z,95054.78
2024-04-15T06:40:29.852Z,95072.75
2024-04-15T06:42:58.313Z,95066.97
2024-04-15T06:45:24.770Z,95059.41
2024-04-15T06:47:54.320Z,95064.69
2024-04-15T06:50:20.680Z,95068.41
2024-04-15T06:52:51.217Z,95084.81
2024-04-15T06:55:17.695Z,95090.09
2024-04-15T06:57:46.185Z,95092.34
2024-04-15T07:00:13.506Z,95084.47
2024-04-15T07:02:41.976Z,95095.41
2024-04-15T07:05:09.218Z,95091.06
2024-04-15T07:07:37.669Z,95083.19
2024-04-15T07:10:07.338Z,95081.88
2024-04-15T07:12:35.883Z,95066.78
2024-04-15T07:15:02.292Z,95056.81
2024-04-15T07:17:30.746Z,95050.19
2024-04-15T07:19:57.175Z,95050.69
2024-04-15T07:22:25.718Z,95050.84
2024-04-15T07:24:52.150Z,95035.53
2024-04-15T07:27:22.933Z,95026.00
2024-04-15T07:29:49.331Z,95021.81
2024-04-15T07:32:18.122Z,95020.00
2024-04-15T07:34:44.695Z,95029.13
2024-04-15T07:37:13.294Z,95029.78
2024-04-15T07:39:39.698Z,95022.53
2024-04-15T07:42:09.027Z,95022.81
2024-04-15T07:44:37.652Z,95023.59
2024-04-15T07:47:06.496Z,95015.31
2024-04-15T07:49:33.831Z,95011.66
2024-04-15T07:52:04.230Z,95026.81
2024-04-15T07:54:30.872Z,95031.06
2024-04-15T07:56:59.267Z,95032.84
2024-04-15T07:59:27.730Z,95028.59
2024-04-15T08:01:56.391Z,95026.41
2024-04-15T08:04:25.048Z,95036.38
2024-04-15T08:07:00.150Z,95049.31
2024-04-15T08:09:35.608Z,95061.91
2024-04-15T08:12:02.020Z,95062.44
2024-04-15T08:14:30.501Z,95048.03
2024-04-15T08:16:59.026Z,95038.00
2024-04-15T08:19:31.264Z,95034.50
2024-04-15T08:21:58.442Z,95034.94
2024-04-15T08:24:26.853Z,95026.59
2024-04-15T08:26:53.279Z,95015.03
2024-04-15T08:29:21.690Z,95021.84
2024-04-15T08:31:48.123Z,95025.88
2024-04-15T08:34:18.567Z,95031.72
2024-04-15T08:36:45.123Z,95025.44
2024-04-15T08:39:13.526Z,95050.28
2024-04-15T08:41:57.729Z,95048.06
2024-04-15T08:44:35.630Z,95051.41
2024-04-15T08:47:10.382Z,95043.06
2024-04-15T08:49:41.241Z,95033.25
2024-04-15T08:52:10.704Z,95036.47
2024-04-15T08:54:40.873Z,95048.75
2024-04-15T08:57:09.329Z,95056.03
2024-04-15T08:59:41.290Z,95055.53
2024-04-15T09:02:07.919Z,95046.06
2024-04-15T09:04:36.722Z,95049.59
2024-04-15T09:07:05.485Z,95057.31
2024-04-15T09:09:33.956Z,95050.88
2024-04-15T09:12:00.919Z,95045.91
2024-04-15T09:14:29.357Z,95046.06
2024-04-15T09:16:56.090Z,95062.94
2024-04-15T09:19:25.878Z,95061.00
2024-04-15T09:21:54.357Z,95057.78
2024-04-15T09:24:22.904Z,95058.94
2024-04-15T09:26:53.411Z,95061.34
2024-04-15T09:29:19.823Z,95063.28
2024-04-15T09:31:48.344Z,95051.88
2024-04-15T09:34:15.929Z,95037.91
2024-04-15T09:36:47.815Z,95045.44
2024-04-15T09:39:14.551Z,95056.03
2024-04-15T09:41:45.265Z,95061.38
2024-04-15T09:44:13.143Z,95051.56
2024-04-15T09:46:46.360Z,95048.34
2024-04-15T09:49:14.135Z,95043.53
2024-04-15T09:51:44.534Z,95097.34
2024-04-15T09:54:15.765Z,95065.03
2024-04-15T09:56:51.027Z,95065.22
2024-04-15T09:59:18.252Z,95065.50
2024-04-15T10:01:50.242Z,95065.81
2024-04-15T10:04:21.447Z,95072.72
2024-04-15T10:06:52.343Z,95090.34
2024-04-15T10:09:19.191Z,95103.34
2024-04-15T10:11:52.127Z,95083.75
2024-04-15T10:14:19.665Z,95095.28
2024-04-15T10:16:49.537Z,95093.69
2024-04-15T10:19:23.794Z,95085.81
2024-04-15T10:21:52.358Z,95078.56
2024-04-15T10:24:18.804Z,95077.94
2024-04-15T10:26:49.458Z,95072.22
2024-04-15T10:29:18.444Z,95081.25
2024-04-15T10:31:52.647Z,95073.19
2024-04-15T10:34:22.317Z,95061.03
2024-04-15T10:36:52.008Z,95071.09
2024-04-15T10:39:19.093Z,95049.13
2024-04-15T10:41:50.706Z,95084.03
2024-04-15T10:44:17.091Z,95108.03
2024-04-15T10:46:46.921Z,95071.56
2024-04-15T10:49:14.919Z,95064.25
2024-04-15T10:51:43.542Z,95069.38
2024-04-15T10:54:10.032Z,95056.22
2024-04-15T10:56:38.502Z,95049.56
2024-04-15T10:59:07.061Z,95043.78
2024-04-15T11:01:35.595Z,95045.91
2024-04-15T11:04:06.383Z,95044.19
2024-04-15T11:06:36.366Z,95066.06
2024-04-15T11:09:04.576Z,95076.53
2024-04-15T11:11:34.322Z,95047.63
2024-04-15T11:14:01.207Z,95028.59
2024-04-15T11:16:31.778Z,95027.75
2024-04-15T11:19:05.768Z,95023.81
2024-04-15T11:21:34.705Z,95012.13
2024-04-15T11:24:01.287Z,95001.22
2024-04-15T11:26:37.073Z,95013.19
2024-04-15T11:29:08.986Z,95007.31
2024-04-15T11:31:42.062Z,94996.50
2024-04-15T11:34:08.597Z,94982.72
2024-04-15T11:36:41.064Z,94994.91
2024-04-15T11:39:07.689Z,94993.00
2024-04-15T11:41:36.378Z,94987.75
2024-04-15T11:44:03.020Z,94980.41
2024-04-15T11:46:31.844Z,94944.88
2024-04-15T11:49:02.303Z,94947.28
2024-04-15T11:51:31.432Z,94938.38
2024-04-15T11:53:57.815Z,94936.16
2024-04-15T11:56:26.261Z,94940.84
2024-04-15T11:58:52.745Z,94935.22
2024-04-15T12:01:21.361Z,94924.47
2024-04-15T12:03:48.257Z,94920.44
2024-04-15T12:06:21.435Z,94920.53
2024-04-15T12:08:47.868Z,94919.59
2024-04-15T12:11:18.818Z,94925.72
2024-04-15T12:13:45.212Z,94928.44
2024-04-15T12:16:13.756Z,94926.09
2024-04-15T12:18:40.271Z,94909.28
2024-04-15T12:21:10.284Z,94902.47
2024-04-15T12:23:41.648Z,94887.31
2024-04-15T12:26:10.111Z,94860.78
2024-04-15T12:28:36.599Z,94864.22
2024-04-15T12:31:05.281Z,94856.13
2024-04-15T12:33:35.036Z,94865.53
2024-04-15T12:36:05.895Z,94862.16
2024-04-15T12:38:32.398Z,94842.41
2024-04-15T12:41:03.051Z,94845.66
2024-04-15T12:43:29.503Z,94842.81
2024-04-15T12:45:57.972Z,94833.53
2024-04-15T12:48:24.493Z,94829.03
2024-04-15T12:50:56.701Z,94829.72
2024-04-15T12:53:23.100Z,94827.78
2024-04-15T12:55:51.542Z,94820.41
2024-04-15T12:58:20.250Z,94811.75
2024-04-15T13:00:48.723Z,94798.56
2024-04-15T13:03:15.196Z,94782.66
2024-04-15T13:05:43.748Z,94776.19
2024-04-15T13:08:10.345Z,94778.44
2024-04-15T13:10:39.253Z,94759.97
2024-04-15T13:13:08.125Z,94749.84
2024-04-15T13:15:36.575Z,94743.38
2024-04-15T13:18:05.337Z,94737.19
2024-04-15T13:20:31.841Z,94733.81
2024-04-15T13:23:03.471Z,94731.66
2024-04-15T13:25:30.748Z,94728.81
2024-04-15T13:27:59.872Z,94725.78
2024-04-15T13:30:26.848Z,94712.94
2024-04-15T13:32:57.756Z,94721.22
2024-04-15T13:35:24.578Z,94701.84
2024-04-15T13:37:53.218Z,94693.13
2024-04-15T13:40:19.866Z,94682.91
2024-04-15T13:42:48.664Z,94684.66
2024-04-15T13:45:15.519Z,94672.28
2024-04-15T13:47:45.809Z,94666.34
2024-04-15T13:50:15.742Z,94654.00
2024-04-15T13:52:44.186Z,94637.47
2024-04-15T13:55:10.712Z,94641.69
2024-04-15T13:57:39.400Z,94630.69
2024-04-15T14:00:09.151Z,94635.22
2024-04-15T14:02:35.891Z,94620.09
2024-04-15T14:05:04.514Z,94611.75
2024-04-15T14:07:36.259Z,94599.31
2024-04-15T14:10:04.938Z,94586.78
2024-04-15T14:12:33.149Z,94592.25
2024-04-15T14:15:02.231Z,94580.06
2024-04-15T14:17:28.925Z,94586.78
2024-04-15T14:19:58.733Z,94577.00
2024-04-15T14:22:25.767Z,94573.28
2024-04-15T14:24:56.255Z,94570.53
2024-04-15T14:27:22.805Z,94572.00
2024-04-15T14:29:51.218Z,94557.69
2024-04-15T14:32:17.678Z,94560.53
2024-04-15T14:34:47.629Z,94559.16
2024-04-15T14:37:15.711Z,94559.81
2024-04-15T14:39:44.215Z,94559.69
2024-04-15T14:42:13.101Z,94549.66
2024-04-15T14:44:41.446Z,94552.44
2024-04-15T14:47:08.292Z,94554.63
2024-04-15T14:49:36.768Z,94552.38
2024-04-15T14:52:04.255Z,94550.16
2024-04-15T14:54:32.683Z,94541.38
2024-04-15T14:57:01.511Z,94524.88
2024-04-15T14:59:32.028Z,94510.94
2024-04-15T15:01:59.498Z,94465.78
2024-04-15T15:04:28.640Z,94458.44
2024-04-15T15:06:55.058Z,94457.97
2024-04-15T15:09:24.420Z,94458.97
2024-04-15T15:11:50.775Z,94461.81
2024-04-15T15:14:19.647Z,94461.50
2024-04-15T15:16:48.172Z,94454.06
2024-04-15T15:19:17.302Z,94444.59
2024-04-15T15:21:44.002Z,94442.56
2024-04-15T15:24:12.595Z,94426.88
2024-04-15T15:26:39.946Z,94422.34
2024-04-15T15:29:12.097Z,94408.00
2024-04-15T15:31:39.280Z,94420.59
2024-04-15T15:34:09.817Z,94414.09
2024-04-15T15:36:36.349Z,94421.34
2024-04-15T15:39:07.683Z,94426.06
2024-04-15T15:41:34.721Z,94388.94
2024-04-15T15:44:03.138Z,94387.25
2024-04-15T15:46:29.660Z,94376.88
2024-04-15T15:48:58.825Z,94375.66
2024-04-15T15:51:27.760Z,94373.66
2024-04-15T15:53:56.162Z,94373.69
2024-04-15T15:56:22.509Z,94365.72
2024-04-15T15:58:51.194Z,94349.94
2024-04-15T16:01:17.815Z,94352.66
2024-04-15T16:03:46.967Z,94346.63
2024-04-15T16:06:13.399Z,94344.59
2024-04-15T16:08:44.015Z,94339.00
2024-04-15T16:11:11.412Z,94331.72
2024-04-15T16:13:40.352Z,94323.50
2024-04-15T16:16:09.260Z,94328.41
2024-04-15T16:18:37.934Z,94306.22
2024-04-15T16:21:04.618Z,94303.72
2024-04-15T16:23:33.064Z,94311.06
2024-04-15T16:26:01.462Z,94319.59
2024-04-15T16:28:30.005Z,94317.78
2024-04-15T16:30:56.386Z,94312.44
2024-04-15T16:33:24.949Z,94332.41
2024-04-15T16:35:51.401Z,94326.31
2024-04-15T16:38:19.792Z,94313.34
2024-04-15T16:40:48.916Z,94316.72
2024-04-15T16:43:19.976Z,94318.84
2024-04-15T16:45:46.383Z,94307.06
2024-04-15T16:48:14.998Z,94312.53
2024-04-15T16:50:41.337Z,94307.59
2024-04-15T16:53:09.755Z,94302.28
2024-04-15T16:55:36.277Z,94284.75
2024-04-15T16:58:06.208Z,94278.00
2024-04-15T17:00:35.086Z,94278.00
2024-04-15T17:03:03.782Z,94271.91
2024-04-15T17:05:30.251Z,94267.19
2024-04-15T17:07:58.724Z,94266.19
2024-04-15T17:10:27.735Z,94282.91
2024-04-15T17:12:56.289Z,94291.75
2024-04-15T17:15:22.736Z,94286.50
2024-04-15T17:17:53.547Z,94285.84
2024-04-15T17:20:20.171Z,94295.56
2024-04-15T17:22:51.062Z,94281.31
2024-04-15T17:25:17.700Z,94275.50
2024-04-15T17:27:46.661Z,94291.81
2024-04-15T17:30:13.267Z,94276.66
2024-04-15T17:32:41.828Z,94263.44
2024-04-15T17:35:13.359Z,94256.38
2024-04-15T17:37:41.852Z,94260.63
2024-04-15T17:40:09.474Z,94266.91
2024-04-15T17:42:37.890Z,94265.75
2024-04-15T17:45:07.515Z,94266.09
2024-04-15T17:47:35.999Z,94263.78
2024-04-15T17:50:02.489Z,94271.81
2024-04-15T17:52:32.975Z,94275.22
2024-04-15T17:54:59.571Z,94284.44
2024-04-15T17:57:28.085Z,94274.66
2024-04-15T17:59:54.397Z,94277.94
2024-04-15T18:02:22.777Z,94277.50
2024-04-15T18:04:49.370Z,94286.03
2024-04-15T18:07:20.966Z,94285.16
2024-04-15T18:09:49.402Z,94266.38
2024-04-15T18:12:17.732Z,94270.47
2024-04-15T18:14:44.543Z,94275.25
2024-04-15T18:17:13.106Z,94270.13
2024-04-15T18:19:39.681Z,94266.13
2024-04-15T18:22:10.742Z,94271.50
2024-04-15T18:24:37.132Z,94268.41
2024-04-15T18:27:07.773Z,94267.03
2024-04-15T18:29:34.262Z,94259.75
2024-04-15T18:32:02.717Z,94254.06
2024-04-15T18:34:29.348Z,94260.78
2024-04-15T18:36:58.000Z,94272.50
2024-04-15T18:39:24.515Z,94273.09
2024-04-15T18:41:53.622Z,94286.31
2024-04-15T18:44:23.149Z,94299.59
2024-04-15T18:46:51.551Z,94310.78
2024-04-15T18:49:19.165Z,94319.41
2024-04-15T18:51:47.598Z,94320.75
2024-04-15T18:54:14.038Z,94327.16
2024-04-15T18:56:42.599Z,94316.09
2024-04-15T18:59:09.212Z,94321.78
2024-04-15T19:01:39.690Z,94329.66
2024-04-15T19:04:06.284Z,94316.44
2024-04-15T19:06:34.932Z,94331.25
2024-04-15T19:09:01.314Z,94313.50
2024-04-15T19:11:29.746Z,94318.97
2024-04-15T19:13:56.138Z,94317.34
2024-04-15T19:16:24.612Z,94325.91
2024-04-15T19:18:53.078Z,94307.00
2024-04-15T19:21:21.498Z,94319.88
2024-04-15T19:23:48.047Z,94315.09
2024-04-15T19:26:16.606Z,94286.84
2024-04-15T19:28:44.012Z,94306.78
2024-04-15T19:31:22.916Z,94322.13
2024-04-15T19:33:58.312Z,94318.63
2024-04-15T19:36:26.934Z,94317.50
2024-04-15T19:38:53.368Z,94330.13
2024-04-15T19:41:21.844Z,94313.13
2024-04-15T19:43:48.300Z,94322.97
2024-04-15T19:46:16.946Z,94317.81
2024-04-15T19:48:43.453Z,94314.63
2024-04-15T19:51:13.949Z,94317.25
2024-04-15T19:53:40.500Z,94309.63
2024-04-15T19:56:09.110Z,94322.59
2024-04-15T19:58:35.640Z,94321.47
2024-04-15T20:01:04.212Z,94315.22
2024-04-15T20:03:30.748Z,94294.25
2024-04-15T20:05:59.428Z,94314.28
2024-04-15T20:08:30.346Z,94315.88
2024-04-15T20:10:58.907Z,94323.84
2024-04-15T20:13:25.618Z,94319.63
2024-04-15T20:15:54.180Z,94320.88
2024-04-15T20:18:34.465Z,94322.13
2024-04-15T20:21:03.298Z,94333.25
2024-04-15T20:23:33.343Z,94337.03
2024-04-15T20:26:01.827Z,94325.66
2024-04-15T20:28:28.314Z,94325.78
2024-04-15T20:30:56.764Z,94341.22
2024-04-15T20:33:23.275Z,94339.19
2024-04-15T20:35:51.855Z,94331.69
2024-04-15T20:38:18.204Z,94343.38
2024-04-15T20:40:48.718Z,94345.09
2024-04-15T20:43:15.297Z,94340.09
2024-04-15T20:45:43.775Z,94329.28
2024-04-15T20:48:10.302Z,94359.19
2024-04-15T20:50:38.825Z,94347.22
2024-04-15T20:53:05.574Z,94364.41
2024-04-15T20:55:34.171Z,94346.28
2024-04-15T20:58:02.817Z,94350.25
2024-04-15T21:00:31.241Z,94354.59
2024-04-15T21:02:58.104Z,94363.91
2024-04-15T21:05:26.548Z,94347.28
2024-04-15T21:07:53.263Z,94339.69
2024-04-15T21:10:23.303Z,94335.78
2024-04-15T21:12:49.918Z,94345.00
2024-04-15T21:15:21.434Z,94330.81
2024-04-15T21:17:47.866Z,94327.94
2024-04-15T21:20:16.347Z,94333.47
2024-04-15T21:22:42.868Z,94327.69
2024-04-15T21:25:12.029Z,94339.63
2024-04-15T21:27:38.393Z,94329.63
2024-04-15T21:30:08.211Z,94316.53
2024-04-15T21:32:36.719Z,94332.78
2024-04-15T21:35:05.359Z,94335.22
2024-04-15T21:37:31.833Z,94322.91
2024-04-15T21:40:00.426Z,94341.81
2024-04-15T21:42:26.847Z,94352.41
2024-04-15T21:44:55.300Z,94342.09
2024-04-15T21:47:21.989Z,94346.06
2024-04-15T21:49:54.895Z,94371.28
2024-04-15T21:52:24.630Z,94351.41
2024-04-15T21:54:53.047Z,94372.41
2024-04-15T21:57:19.440Z,94383.00
2024-04-15T21:59:48.811Z,94457.97
2024-04-15T22:02:15.247Z,94473.34
2024-04-15T22:04:53.392Z,94469.44
2024-04-15T22:07:29.023Z,94486.91
2024-04-15T22:09:57.655Z,94504.31
2024-04-15T22:12:24.190Z,94538.75
2024-04-15T22:14:52.720Z,94550.00
2024-04-15T22:17:19.154Z,94555.19
2024-04-15T22:19:47.657Z,94557.38
2024-04-15T22:22:14.092Z,94585.72
2024-04-15T22:24:44.542Z,94585.88
2024-04-15T22:27:10.945Z,94581.84
2024-04-15T22:29:39.364Z,94567.44
2024-04-15T22:32:05.739Z,94594.13
2024-04-15T22:34:34.214Z,94598.69
2024-04-15T22:37:00.625Z,94612.13
2024-04-15T22:39:29.467Z,94637.22
2024-04-15T22:41:58.367Z,94647.13
2024-04-15T22:44:26.777Z,94658.34
2024-04-15T22:46:53.136Z,94649.81
2024-04-15T22:49:22.736Z,94651.53
2024-04-15T22:51:49.088Z,94657.31
2024-04-15T22:54:18.863Z,94634.66
2024-04-15T22:56:46.345Z,94650.25
2024-04-15T22:59:16.757Z,94661.09
2024-04-15T23:01:43.198Z,94660.03
2024-04-15T23:04:11.838Z,94671.13
2024-04-15T23:06:38.238Z,94675.00
2024-04-15T23:09:07.191Z,94687.69
2024-04-15T23:11:36.191Z,94687.19
2024-04-15T23:14:04.649Z,94673.25
2024-04-15T23:16:33.156Z,94679.66
2024-04-15T23:19:01.703Z,94687.31
2024-04-15T23:21:28.073Z,94709.22
2024-04-15T23:23:56.492Z,94722.13
2024-04-15T23:26:22.883Z,94710.53
2024-04-15T23:28:51.810Z,94707.13
2024-04-15T23:31:18.169Z,94704.72
2024-04-15T23:33:49.027Z,94723.63
2024-04-15T23:36:15.429Z,94721.78
2024-04-15T23:38:43.908Z,94717.47
2024-04-15T23:41:10.266Z,94724.00
2024-04-15T23:43:38.702Z,94724.72
2024-04-15T23:46:05.135Z,94722.34
2024-04-15T23:48:33.575Z,94713.78
2024-04-15T23:51:01.997Z,94713.25
2024-04-15T23:53:30.396Z,94715.97
2024-04-15T23:55:56.762Z,94721.41
2024-04-15T23:58:27.634Z,94700.19
